sensor_id;sensor_type;location;lat;lon;timestamp;pressure;altitude;pressure_sealevel;temperature;humidity
38191;BME280;25191;47.510;19.124;2023-03-25T00:04:00;99379.69;;;22.99;43.38
38191;BME280;25191;47.510;19.124;2023-03-25T00:14:04;99393.03;;;22.97;43.50
38191;BME280;25191;47.510;19.124;2023-03-25T00:24:04;99384.94;;;22.99;43.94
38191;BME280;25191;47.510;19.124;2023-03-25T00:34:05;99395.69;;;22.97;43.74
38191;BME280;25191;47.510;19.124;2023-03-25T00:44:06;99393.34;;;22.94;43.48
38191;BME280;25191;47.510;19.124;2023-03-25T00:54:08;99396.94;;;22.93;43.66
38191;BME280;25191;47.510;19.124;2023-03-25T01:04:09;99403.22;;;22.92;43.48
38191;BME280;25191;47.510;19.124;2023-03-25T01:14:19;99396.28;;;22.91;43.58
38191;BME280;25191;47.510;19.124;2023-03-25T01:24:21;99391.16;;;22.90;43.66
38191;BME280;25191;47.510;19.124;2023-03-25T01:34:22;99410.47;;;22.90;43.71
38191;BME280;25191;47.510;19.124;2023-03-25T01:54:23;99416.88;;;22.88;43.54
38191;BME280;25191;47.510;19.124;2023-03-25T02:14:35;99434.53;;;22.87;43.93
38191;BME280;25191;47.510;19.124;2023-03-25T02:45:34;99424.13;;;22.85;44.29
38191;BME280;25191;47.510;19.124;2023-03-25T02:55:36;99411.75;;;22.86;44.33
38191;BME280;25191;47.510;19.124;2023-03-25T03:05:40;99427.75;;;22.84;44.76
38191;BME280;25191;47.510;19.124;2023-03-25T03:35:53;99442.91;;;22.82;45.28
38191;BME280;25191;47.510;19.124;2023-03-25T03:46:04;99455.28;;;22.82;45.21
38191;BME280;25191;47.510;19.124;2023-03-25T03:56:19;99485.97;;;22.83;44.80
38191;BME280;25191;47.510;19.124;2023-03-25T04:06:26;99485.28;;;22.81;45.47
38191;BME280;25191;47.510;19.124;2023-03-25T04:16:35;99487.09;;;22.80;45.17
38191;BME280;25191;47.510;19.124;2023-03-25T04:26:36;99502.94;;;22.80;45.31
38191;BME280;25191;47.510;19.124;2023-03-25T04:36:37;99517.81;;;22.81;45.62
38191;BME280;25191;47.510;19.124;2023-03-25T04:46:37;99526.81;;;22.79;45.70
38191;BME280;25191;47.510;19.124;2023-03-25T04:56:38;99528.66;;;22.78;45.61
38191;BME280;25191;47.510;19.124;2023-03-25T05:06:41;99542.00;;;22.77;46.02
38191;BME280;25191;47.510;19.124;2023-03-25T05:16:43;99547.94;;;22.79;45.56
38191;BME280;25191;47.510;19.124;2023-03-25T05:26:44;99548.25;;;22.76;45.73
38191;BME280;25191;47.510;19.124;2023-03-25T05:36:44;99551.59;;;22.78;45.74
38191;BME280;25191;47.510;19.124;2023-03-25T05:46:47;99547.13;;;22.78;45.73
38191;BME280;25191;47.510;19.124;2023-03-25T05:56:47;99548.47;;;22.82;46.03
38191;BME280;25191;47.510;19.124;2023-03-25T06:06:48;99558.22;;;22.82;45.86
38191;BME280;25191;47.510;19.124;2023-03-25T06:16:50;99560.84;;;22.82;45.98
38191;BME280;25191;47.510;19.124;2023-03-25T06:26:50;99576.84;;;22.80;45.86
38191;BME280;25191;47.510;19.124;2023-03-25T06:36:50;99572.53;;;22.79;46.04
38191;BME280;25191;47.510;19.124;2023-03-25T06:46:53;99582.25;;;22.79;45.93
38191;BME280;25191;47.510;19.124;2023-03-25T06:56:53;99590.84;;;22.81;45.87
38191;BME280;25191;47.510;19.124;2023-03-25T07:06:54;99594.34;;;22.81;46.50
38191;BME280;25191;47.510;19.124;2023-03-25T07:16:54;99600.28;;;22.83;46.12
38191;BME280;25191;47.510;19.124;2023-03-25T07:26:55;99605.41;;;22.85;46.43
38191;BME280;25191;47.510;19.124;2023-03-25T07:36:56;99613.72;;;22.90;47.37
38191;BME280;25191;47.510;19.124;2023-03-25T07:46:58;99626.34;;;22.68;45.58
38191;BME280;25191;47.510;19.124;2023-03-25T07:56:58;99616.97;;;22.84;46.37
38191;BME280;25191;47.510;19.124;2023-03-25T08:06:59;99615.41;;;22.91;46.39
38191;BME280;25191;47.510;19.124;2023-03-25T08:17:00;99608.81;;;22.95;47.00
38191;BME280;25191;47.510;19.124;2023-03-25T08:27:00;99610.19;;;22.99;47.65
38191;BME280;25191;47.510;19.124;2023-03-25T08:37:01;99598.47;;;23.02;47.92
38191;BME280;25191;47.510;19.124;2023-03-25T08:47:01;99589.47;;;23.05;47.22
38191;BME280;25191;47.510;19.124;2023-03-25T08:57:01;99582.34;;;23.05;47.76
38191;BME280;25191;47.510;19.124;2023-03-25T09:07:02;99589.00;;;22.91;44.13
38191;BME280;25191;47.510;19.124;2023-03-25T09:17:03;99585.81;;;22.88;41.59
38191;BME280;25191;47.510;19.124;2023-03-25T09:27:07;99584.38;;;22.93;42.46
38191;BME280;25191;47.510;19.124;2023-03-25T09:37:07;99576.72;;;23.00;43.44
38191;BME280;25191;47.510;19.124;2023-03-25T09:47:09;99585.97;;;23.04;43.53
38191;BME280;25191;47.510;19.124;2023-03-25T09:57:15;99587.47;;;23.07;44.42
38191;BME280;25191;47.510;19.124;2023-03-25T10:28:51;99593.09;;;23.22;44.05
38191;BME280;25191;47.510;19.124;2023-03-25T10:38:53;99577.41;;;23.20;43.53
38191;BME280;25191;47.510;19.124;2023-03-25T10:48:54;99593.09;;;23.22;44.27
38191;BME280;25191;47.510;19.124;2023-03-25T10:58:56;99578.78;;;23.24;44.36
38191;BME280;25191;47.510;19.124;2023-03-25T11:08:57;99575.28;;;23.24;43.67
38191;BME280;25191;47.510;19.124;2023-03-25T11:19:06;99581.41;;;23.24;44.38
38191;BME280;25191;47.510;19.124;2023-03-25T11:29:15;99589.47;;;23.23;44.10
38191;BME280;25191;47.510;19.124;2023-03-25T11:39:33;99584.34;;;23.21;43.46
38191;BME280;25191;47.510;19.124;2023-03-25T11:49:37;99572.13;;;23.20;43.07
38191;BME280;25191;47.510;19.124;2023-03-25T11:59:42;99577.75;;;23.25;43.87
38191;BME280;25191;47.510;19.124;2023-03-25T12:09:54;99591.06;;;23.33;44.55
38191;BME280;25191;47.510;19.124;2023-03-25T12:20:19;99589.78;;;23.38;45.09
38191;BME280;25191;47.510;19.124;2023-03-25T13:12:04;99537.66;;;23.48;45.79
38191;BME280;25191;47.510;19.124;2023-03-25T13:22:18;99541.97;;;23.49;45.66
38191;BME280;25191;47.510;19.124;2023-03-25T13:32:31;99538.19;;;23.52;45.51
38191;BME280;25191;47.510;19.124;2023-03-25T13:52:56;99538.72;;;23.55;45.65
38191;BME280;25191;47.510;19.124;2023-03-25T14:03:09;99541.06;;;23.58;43.95
38191;BME280;25191;47.510;19.124;2023-03-25T14:13:31;99550.09;;;23.56;45.41
38191;BME280;25191;47.510;19.124;2023-03-25T14:23:33;99549.56;;;23.52;43.72
38191;BME280;25191;47.510;19.124;2023-03-25T14:44:16;99529.91;;;23.46;43.66
38191;BME280;25191;47.510;19.124;2023-03-25T14:54:32;99538.97;;;23.44;43.75
38191;BME280;25191;47.510;19.124;2023-03-25T15:04:35;99540.09;;;23.41;43.71
38191;BME280;25191;47.510;19.124;2023-03-25T15:14:40;99537.06;;;23.36;43.77
38191;BME280;25191;47.510;19.124;2023-03-25T15:24:42;99548.78;;;23.33;43.80
38191;BME280;25191;47.510;19.124;2023-03-25T15:56:13;99533.25;;;23.57;43.55
38191;BME280;25191;47.510;19.124;2023-03-25T16:06:17;99530.22;;;23.70;43.40
38191;BME280;25191;47.510;19.124;2023-03-25T16:16:19;99529.97;;;23.89;43.46
38191;BME280;25191;47.510;19.124;2023-03-25T16:26:42;99534.25;;;23.82;43.11
38191;BME280;25191;47.510;19.124;2023-03-25T16:36:45;99539.00;;;23.78;42.82
38191;BME280;25191;47.510;19.124;2023-03-25T16:46:49;99536.19;;;23.72;42.24
38191;BME280;25191;47.510;19.124;2023-03-25T16:56:51;99563.00;;;23.59;42.08
38191;BME280;25191;47.510;19.124;2023-03-25T17:06:55;99553.69;;;23.46;42.37
38191;BME280;25191;47.510;19.124;2023-03-25T17:17:06;99553.63;;;23.38;42.87
38191;BME280;25191;47.510;19.124;2023-03-25T17:37:24;99574.16;;;23.26;43.06
38191;BME280;25191;47.510;19.124;2023-03-25T17:47:26;99575.28;;;23.24;43.26
38191;BME280;25191;47.510;19.124;2023-03-25T17:57:26;99584.50;;;23.20;43.39
38191;BME280;25191;47.510;19.124;2023-03-25T18:07:28;99594.50;;;23.16;43.43
38191;BME280;25191;47.510;19.124;2023-03-25T18:17:28;99602.19;;;23.09;43.62
38191;BME280;25191;47.510;19.124;2023-03-25T18:27:31;99611.25;;;23.07;43.52
38191;BME280;25191;47.510;19.124;2023-03-25T18:37:33;99629.34;;;23.01;43.76
38191;BME280;25191;47.510;19.124;2023-03-25T18:47:34;99629.78;;;22.97;43.45
38191;BME280;25191;47.510;19.124;2023-03-25T18:57:35;99648.13;;;22.98;43.68
38191;BME280;25191;47.510;19.124;2023-03-25T19:07:37;99653.13;;;23.01;43.59
38191;BME280;25191;47.510;19.124;2023-03-25T19:17:39;99660.06;;;23.02;43.59
38191;BME280;25191;47.510;19.124;2023-03-25T19:27:40;99668.81;;;23.03;43.93
38191;BME280;25191;47.510;19.124;2023-03-25T19:37:42;99681.34;;;23.01;44.05
38191;BME280;25191;47.510;19.124;2023-03-25T19:47:51;99695.38;;;23.01;44.45
38191;BME280;25191;47.510;19.124;2023-03-25T19:57:53;99698.97;;;23.00;44.52
38191;BME280;25191;47.510;19.124;2023-03-25T20:07:54;99700.91;;;22.98;44.69
38191;BME280;25191;47.510;19.124;2023-03-25T20:17:55;99710.81;;;22.96;43.66
38191;BME280;25191;47.510;19.124;2023-03-25T20:27:57;99698.06;;;22.92;43.44
38191;BME280;25191;47.510;19.124;2023-03-25T20:37:58;99720.16;;;22.91;43.71
38191;BME280;25191;47.510;19.124;2023-03-25T20:47:58;99727.38;;;22.89;44.13
38191;BME280;25191;47.510;19.124;2023-03-25T20:57:59;99732.66;;;22.89;44.54
38191;BME280;25191;47.510;19.124;2023-03-25T21:08:01;99727.38;;;22.89;44.87
38191;BME280;25191;47.510;19.124;2023-03-25T21:18:02;99717.13;;;22.85;45.02
38191;BME280;25191;47.510;19.124;2023-03-25T21:28:03;99740.03;;;22.85;45.35
38191;BME280;25191;47.510;19.124;2023-03-25T21:38:04;99742.00;;;22.83;45.22
38191;BME280;25191;47.510;19.124;2023-03-25T21:48:07;99755.06;;;22.84;45.35
38191;BME280;25191;47.510;19.124;2023-03-25T21:58:08;99755.06;;;22.84;45.38
38191;BME280;25191;47.510;19.124;2023-03-25T22:08:09;99760.31;;;22.84;45.76
38191;BME280;25191;47.510;19.124;2023-03-25T22:18:10;99770.88;;;22.84;45.85
38191;BME280;25191;47.510;19.124;2023-03-25T22:28:12;99778.09;;;22.82;45.62
38191;BME280;25191;47.510;19.124;2023-03-25T22:38:13;99775.34;;;22.84;45.78
38191;BME280;25191;47.510;19.124;2023-03-25T22:48:13;99771.84;;;22.83;45.74
38191;BME280;25191;47.510;19.124;2023-03-25T22:58:14;99767.72;;;22.81;46.18
38191;BME280;25191;47.510;19.124;2023-03-25T23:08:15;99766.19;;;22.78;46.06
38191;BME280;25191;47.510;19.124;2023-03-25T23:18:24;99781.22;;;22.78;46.41
38191;BME280;25191;47.510;19.124;2023-03-25T23:28:27;99795.22;;;22.78;46.02
38191;BME280;25191;47.510;19.124;2023-03-25T23:38:29;99794.41;;;22.78;45.93
38191;BME280;25191;47.510;19.124;2023-03-25T23:48:31;99805.94;;;22.77;46.03
38191;BME280;25191;47.510;19.124;2023-03-25T23:58:32;99796.34;;;22.76;46.41
